Paxtonville, Pennsylvania
Current Conditions -  °F | °C
As of 1:53 PM on Thursday 18 Dec 2014 (Local Time) from KSEG Reporting Station
Overcast Overcast  
Wind Chill: 30°   Ceiling: 3100
Heat Index: 36°   Visibility: 10mi
Dew Point: 24°   Wind: 8mph
Humidity: 62%   Direction: 290°WNW
Pressure: 30.07"   Gusts: NA
Location:  40.77°N, 77.08°W
Report Text: KSEG 181853Z AUTO 29007KT 10SM OVC031 02/M04 A3007 RMK AO2 SLP186 T00221044
Loading
Personal Weather Stations






























Interactive Weather Map New forecast layout! Learn more

10-Day Weather Forecast

Advertisements
Track Severe Weather on mobile